This is the latest recevied weather packets stored in our database for station/object HA9OZD-21. If no packets are shown the sender has not sent any weather packets the latest 10 day(s).
| Time | Temp. | Humidity | Pressure | Rain* | Wind** | Luminosity | Snow |
|---|---|---|---|---|---|---|---|
| 1777176094 | 10.56° C | 60% | 1007.6 hPa | - | - | - | - |
| 1777172494 | 11.11° C | 53% | 1006.8 hPa | - | - | - | - |
| 1777168894 | 11.67° C | 53% | 1006.6 hPa | - | - | - | - |
| 1777165294 | 11.11° C | 81% | 1006.6 hPa | - | - | - | - |
| 1777161693 | 11.67° C | 69% | 1007.3 hPa | - | - | - | - |
| 1777158105 | 12.22° C | 69% | 1007.7 hPa | - | - | - | - |
| 1777154505 | 13.33° C | 72% | 1008.3 hPa | - | - | - | - |
| 1777150905 | 13.33° C | 74% | 1008.5 hPa | - | - | - | - |
| 1777147305 | 13.33° C | 77% | 1008.8 hPa | - | - | - | - |
| 1777143705 | 13.89° C | 67% | 1009.3 hPa | - | - | - | - |
| 1777140104 | 14.44° C | 64% | 1008.8 hPa | - | - | - | - |
| 1777136504 | 15° C | 61% | 1008.9 hPa | - | - | - | - |
| 1777132904 | 15.56° C | 55% | 1009.1 hPa | - | - | - | - |
| 1777129304 | 16.11° C | 51% | 1009.5 hPa | - | - | - | - |
| 1777125704 | 16.67° C | 49% | 1009.6 hPa | - | - | - | - |
| 1777122104 | 17.22° C | 51% | 1010.1 hPa | - | - | - | - |
| 1777118504 | 17.22° C | 61% | 1010.5 hPa | - | - | - | - |
| 1777114903 | 16.67° C | 62% | 1011 hPa | - | - | - | - |
| 1777111303 | 15.56° C | 62% | 1011.5 hPa | - | - | - | - |
| 1777107699 | 15.56° C | 78% | 1012 hPa | - | - | - | - |
| 1777104099 | 11.67° C | 100% | 1012.3 hPa | - | - | - | - |
| 1777100499 | 11.67° C | 100% | 1012.5 hPa | - | - | - | - |
| 1777096897 | 10° C | 99% | 1012.5 hPa | - | - | - | - |
| 1777093296 | 8.33° C | 100% | 1012.4 hPa | - | - | - | - |
| 1777089696 | 8.89° C | 93% | 1012.2 hPa | - | - | - | - |
* Rain since midnight (hover to see other rain measurements)
** Current wind speed in m/s (hover to see current wind gust speed)